sensor_id;sensor_type;location;lat;lon;timestamp;temperature;humidity
20650;DHT22;10484;48.736;9.332;2022-12-16T00:02:01;0.80;1.00
20650;DHT22;10484;48.736;9.332;2022-12-16T00:04:27;0.80;1.00
20650;DHT22;10484;48.736;9.332;2022-12-16T00:06:52;0.80;1.00
20650;DHT22;10484;48.736;9.332;2022-12-16T00:09:18;0.80;1.00
20650;DHT22;10484;48.736;9.332;2022-12-16T00:11:44;0.80;1.00
20650;DHT22;10484;48.736;9.332;2022-12-16T00:14:09;0.80;1.00
20650;DHT22;10484;48.736;9.332;2022-12-16T00:16:35;0.80;1.00
20650;DHT22;10484;48.736;9.332;2022-12-16T00:19:00;0.80;1.00
20650;DHT22;10484;48.736;9.332;2022-12-16T00:21:26;0.70;1.00
20650;DHT22;10484;48.736;9.332;2022-12-16T00:23:54;0.70;1.00
20650;DHT22;10484;48.736;9.332;2022-12-16T00:26:20;0.70;1.00
20650;DHT22;10484;48.736;9.332;2022-12-16T00:28:46;0.80;1.00
20650;DHT22;10484;48.736;9.332;2022-12-16T00:31:11;0.80;1.00
20650;DHT22;10484;48.736;9.332;2022-12-16T00:33:37;0.80;1.00
20650;DHT22;10484;48.736;9.332;2022-12-16T00:36:03;0.80;1.00
20650;DHT22;10484;48.736;9.332;2022-12-16T00:38:29;0.80;1.00
20650;DHT22;10484;48.736;9.332;2022-12-16T00:40:54;0.80;1.00
20650;DHT22;10484;48.736;9.332;2022-12-16T00:43:20;0.70;1.00
20650;DHT22;10484;48.736;9.332;2022-12-16T00:45:46;0.70;1.00
20650;DHT22;10484;48.736;9.332;2022-12-16T00:48:12;0.70;1.00
20650;DHT22;10484;48.736;9.332;2022-12-16T00:50:38;0.70;1.00
20650;DHT22;10484;48.736;9.332;2022-12-16T00:53:04;0.70;1.00
20650;DHT22;10484;48.736;9.332;2022-12-16T00:55:30;0.70;1.00
20650;DHT22;10484;48.736;9.332;2022-12-16T00:57:57;0.70;1.00
20650;DHT22;10484;48.736;9.332;2022-12-16T01:00:23;0.70;1.00
20650;DHT22;10484;48.736;9.332;2022-12-16T01:02:49;0.60;1.00
20650;DHT22;10484;48.736;9.332;2022-12-16T01:05:19;0.60;1.00
20650;DHT22;10484;48.736;9.332;2022-12-16T01:07:46;0.60;1.00
20650;DHT22;10484;48.736;9.332;2022-12-16T01:10:12;0.60;1.00
20650;DHT22;10484;48.736;9.332;2022-12-16T01:12:38;0.60;1.00
20650;DHT22;10484;48.736;9.332;2022-12-16T01:15:06;0.60;1.00
20650;DHT22;10484;48.736;9.332;2022-12-16T01:17:32;0.60;1.00
20650;DHT22;10484;48.736;9.332;2022-12-16T01:19:59;0.60;1.00
20650;DHT22;10484;48.736;9.332;2022-12-16T01:22:30;0.60;1.00
20650;DHT22;10484;48.736;9.332;2022-12-16T01:24:56;0.50;1.00
20650;DHT22;10484;48.736;9.332;2022-12-16T01:27:22;0.50;1.00
20650;DHT22;10484;48.736;9.332;2022-12-16T01:29:47;0.60;1.00
20650;DHT22;10484;48.736;9.332;2022-12-16T01:32:14;0.60;1.00
20650;DHT22;10484;48.736;9.332;2022-12-16T01:34:40;0.60;1.00
20650;DHT22;10484;48.736;9.332;2022-12-16T01:37:08;0.60;1.00
20650;DHT22;10484;48.736;9.332;2022-12-16T01:39:35;0.60;1.00
20650;DHT22;10484;48.736;9.332;2022-12-16T01:42:00;0.60;1.00
20650;DHT22;10484;48.736;9.332;2022-12-16T01:44:26;0.60;1.00
20650;DHT22;10484;48.736;9.332;2022-12-16T01:47:02;0.60;1.00
20650;DHT22;10484;48.736;9.332;2022-12-16T01:49:44;0.60;1.00
20650;DHT22;10484;48.736;9.332;2022-12-16T01:52:19;0.60;1.00
20650;DHT22;10484;48.736;9.332;2022-12-16T01:54:53;0.60;1.00
20650;DHT22;10484;48.736;9.332;2022-12-16T01:57:26;0.60;1.00
20650;DHT22;10484;48.736;9.332;2022-12-16T01:59:54;0.60;1.00
20650;DHT22;10484;48.736;9.332;2022-12-16T02:02:20;0.60;1.00
20650;DHT22;10484;48.736;9.332;2022-12-16T02:04:48;0.60;1.00
20650;DHT22;10484;48.736;9.332;2022-12-16T02:07:32;0.60;1.00
20650;DHT22;10484;48.736;9.332;2022-12-16T02:09:58;0.60;1.00
20650;DHT22;10484;48.736;9.332;2022-12-16T02:17:46;0.60;1.00
20650;DHT22;10484;48.736;9.332;2022-12-16T02:31:36;0.60;1.00
20650;DHT22;10484;48.736;9.332;2022-12-16T02:37:02;0.50;1.00
20650;DHT22;10484;48.736;9.332;2022-12-16T02:39:37;0.50;1.00
20650;DHT22;10484;48.736;9.332;2022-12-16T02:42:15;0.50;1.00
20650;DHT22;10484;48.736;9.332;2022-12-16T02:44:52;0.50;1.00
20650;DHT22;10484;48.736;9.332;2022-12-16T02:47:19;0.50;1.00
20650;DHT22;10484;48.736;9.332;2022-12-16T02:49:49;0.50;1.00
20650;DHT22;10484;48.736;9.332;2022-12-16T02:52:16;0.50;1.00
20650;DHT22;10484;48.736;9.332;2022-12-16T02:54:43;0.50;1.00
20650;DHT22;10484;48.736;9.332;2022-12-16T02:57:20;0.50;1.00
20650;DHT22;10484;48.736;9.332;2022-12-16T03:00:14;0.50;1.00
20650;DHT22;10484;48.736;9.332;2022-12-16T03:05:20;0.50;1.00
20650;DHT22;10484;48.736;9.332;2022-12-16T03:07:47;0.50;1.00
20650;DHT22;10484;48.736;9.332;2022-12-16T03:10:16;0.50;1.00
20650;DHT22;10484;48.736;9.332;2022-12-16T03:12:45;0.40;1.00
20650;DHT22;10484;48.736;9.332;2022-12-16T03:15:17;0.40;1.00
20650;DHT22;10484;48.736;9.332;2022-12-16T03:17:45;0.40;1.00
20650;DHT22;10484;48.736;9.332;2022-12-16T03:20:22;0.40;1.00
20650;DHT22;10484;48.736;9.332;2022-12-16T03:22:51;0.40;1.00
20650;DHT22;10484;48.736;9.332;2022-12-16T03:25:19;0.40;1.00
20650;DHT22;10484;48.736;9.332;2022-12-16T03:28:31;0.40;1.00
20650;DHT22;10484;48.736;9.332;2022-12-16T03:31:22;0.40;1.00
20650;DHT22;10484;48.736;9.332;2022-12-16T03:33:58;0.40;1.00
20650;DHT22;10484;48.736;9.332;2022-12-16T03:36:26;0.40;1.00
20650;DHT22;10484;48.736;9.332;2022-12-16T03:38:55;0.40;1.00
20650;DHT22;10484;48.736;9.332;2022-12-16T03:41:22;0.30;1.00
20650;DHT22;10484;48.736;9.332;2022-12-16T03:43:49;0.30;1.00
20650;DHT22;10484;48.736;9.332;2022-12-16T03:46:16;0.30;1.00
20650;DHT22;10484;48.736;9.332;2022-12-16T03:48:51;0.30;1.00
20650;DHT22;10484;48.736;9.332;2022-12-16T03:51:18;0.30;1.00
20650;DHT22;10484;48.736;9.332;2022-12-16T03:53:44;0.30;1.00
20650;DHT22;10484;48.736;9.332;2022-12-16T03:56:11;0.30;1.00
20650;DHT22;10484;48.736;9.332;2022-12-16T03:58:37;0.30;1.00
20650;DHT22;10484;48.736;9.332;2022-12-16T04:01:06;0.30;1.00
20650;DHT22;10484;48.736;9.332;2022-12-16T04:03:32;0.30;1.00
20650;DHT22;10484;48.736;9.332;2022-12-16T04:05:58;0.30;1.00
20650;DHT22;10484;48.736;9.332;2022-12-16T04:08:24;0.30;1.00
20650;DHT22;10484;48.736;9.332;2022-12-16T04:10:51;0.30;1.00
20650;DHT22;10484;48.736;9.332;2022-12-16T04:13:36;0.30;1.00
20650;DHT22;10484;48.736;9.332;2022-12-16T04:16:20;0.30;1.00
20650;DHT22;10484;48.736;9.332;2022-12-16T04:19:05;0.20;1.00
20650;DHT22;10484;48.736;9.332;2022-12-16T04:21:49;0.20;1.00
20650;DHT22;10484;48.736;9.332;2022-12-16T04:24:34;0.20;1.00
20650;DHT22;10484;48.736;9.332;2022-12-16T04:27:00;0.30;1.00
20650;DHT22;10484;48.736;9.332;2022-12-16T04:29:44;0.20;1.00
20650;DHT22;10484;48.736;9.332;2022-12-16T04:32:29;0.20;1.00
20650;DHT22;10484;48.736;9.332;2022-12-16T04:35:18;0.30;1.00
20650;DHT22;10484;48.736;9.332;2022-12-16T04:38:03;0.30;1.00
20650;DHT22;10484;48.736;9.332;2022-12-16T04:40:47;0.20;1.00
20650;DHT22;10484;48.736;9.332;2022-12-16T04:43:31;0.30;1.00
20650;DHT22;10484;48.736;9.332;2022-12-16T04:46:15;0.30;1.00
20650;DHT22;10484;48.736;9.332;2022-12-16T04:48:59;0.30;1.00
20650;DHT22;10484;48.736;9.332;2022-12-16T04:51:43;0.30;1.00
20650;DHT22;10484;48.736;9.332;2022-12-16T04:54:27;0.30;1.00
20650;DHT22;10484;48.736;9.332;2022-12-16T04:57:11;0.30;1.00
20650;DHT22;10484;48.736;9.332;2022-12-16T04:59:55;0.30;1.00
20650;DHT22;10484;48.736;9.332;2022-12-16T05:02:39;0.30;1.00
20650;DHT22;10484;48.736;9.332;2022-12-16T05:05:23;0.20;1.00
20650;DHT22;10484;48.736;9.332;2022-12-16T05:08:07;0.20;1.00
20650;DHT22;10484;48.736;9.332;2022-12-16T05:10:51;0.20;1.00
20650;DHT22;10484;48.736;9.332;2022-12-16T05:13:36;0.20;1.00
20650;DHT22;10484;48.736;9.332;2022-12-16T05:16:20;0.20;1.00
20650;DHT22;10484;48.736;9.332;2022-12-16T05:19:04;0.20;1.00
20650;DHT22;10484;48.736;9.332;2022-12-16T05:21:48;0.20;1.00
20650;DHT22;10484;48.736;9.332;2022-12-16T05:24:32;0.20;1.00
20650;DHT22;10484;48.736;9.332;2022-12-16T05:27:16;0.10;1.00
20650;DHT22;10484;48.736;9.332;2022-12-16T05:30:00;0.10;1.00
20650;DHT22;10484;48.736;9.332;2022-12-16T05:32:47;0.20;1.00
20650;DHT22;10484;48.736;9.332;2022-12-16T05:35:32;0.20;1.00
20650;DHT22;10484;48.736;9.332;2022-12-16T05:38:16;0.20;1.00
20650;DHT22;10484;48.736;9.332;2022-12-16T05:41:00;0.20;1.00
20650;DHT22;10484;48.736;9.332;2022-12-16T05:43:44;0.20;1.00
20650;DHT22;10484;48.736;9.332;2022-12-16T05:46:28;0.20;1.00
20650;DHT22;10484;48.736;9.332;2022-12-16T05:49:12;0.20;1.00
20650;DHT22;10484;48.736;9.332;2022-12-16T05:51:57;0.20;1.00
20650;DHT22;10484;48.736;9.332;2022-12-16T05:54:41;0.20;1.00
20650;DHT22;10484;48.736;9.332;2022-12-16T05:57:25;0.10;1.00
20650;DHT22;10484;48.736;9.332;2022-12-16T06:00:10;0.20;1.00
20650;DHT22;10484;48.736;9.332;2022-12-16T06:02:54;0.20;1.00
20650;DHT22;10484;48.736;9.332;2022-12-16T06:05:38;0.10;1.00
20650;DHT22;10484;48.736;9.332;2022-12-16T06:08:22;0.10;1.00
20650;DHT22;10484;48.736;9.332;2022-12-16T06:11:07;0.10;1.00
20650;DHT22;10484;48.736;9.332;2022-12-16T06:13:51;0.10;1.00
20650;DHT22;10484;48.736;9.332;2022-12-16T06:16:35;0.20;1.00
20650;DHT22;10484;48.736;9.332;2022-12-16T06:19:19;0.10;1.00
20650;DHT22;10484;48.736;9.332;2022-12-16T06:22:03;0.10;1.00
20650;DHT22;10484;48.736;9.332;2022-12-16T06:24:47;0.10;1.00
20650;DHT22;10484;48.736;9.332;2022-12-16T06:27:31;0.10;1.00
20650;DHT22;10484;48.736;9.332;2022-12-16T06:30:15;0.10;1.00
20650;DHT22;10484;48.736;9.332;2022-12-16T06:33:00;0.10;1.00
20650;DHT22;10484;48.736;9.332;2022-12-16T06:35:45;0.00;1.00
20650;DHT22;10484;48.736;9.332;2022-12-16T06:38:30;0.00;1.00
20650;DHT22;10484;48.736;9.332;2022-12-16T06:41:14;0.00;1.00
20650;DHT22;10484;48.736;9.332;2022-12-16T06:43:58;0.00;1.00
20650;DHT22;10484;48.736;9.332;2022-12-16T06:46:43;0.00;1.00
20650;DHT22;10484;48.736;9.332;2022-12-16T06:49:27;0.00;1.00
20650;DHT22;10484;48.736;9.332;2022-12-16T06:52:11;0.00;1.00
20650;DHT22;10484;48.736;9.332;2022-12-16T06:54:55;0.00;1.00
20650;DHT22;10484;48.736;9.332;2022-12-16T06:57:39;0.00;1.00
20650;DHT22;10484;48.736;9.332;2022-12-16T07:00:23;0.00;1.00
20650;DHT22;10484;48.736;9.332;2022-12-16T07:03:07;0.00;1.00
20650;DHT22;10484;48.736;9.332;2022-12-16T07:05:52;0.00;1.00
20650;DHT22;10484;48.736;9.332;2022-12-16T07:08:37;0.00;1.00
20650;DHT22;10484;48.736;9.332;2022-12-16T07:11:21;0.00;1.00
20650;DHT22;10484;48.736;9.332;2022-12-16T07:14:05;0.00;1.00
20650;DHT22;10484;48.736;9.332;2022-12-16T07:16:49;0.00;1.00
20650;DHT22;10484;48.736;9.332;2022-12-16T07:19:33;0.00;1.00
20650;DHT22;10484;48.736;9.332;2022-12-16T07:22:17;0.00;1.00
20650;DHT22;10484;48.736;9.332;2022-12-16T07:25:01;0.00;1.00
20650;DHT22;10484;48.736;9.332;2022-12-16T07:27:46;0.00;1.00
20650;DHT22;10484;48.736;9.332;2022-12-16T07:30:30;0.00;1.00
20650;DHT22;10484;48.736;9.332;2022-12-16T07:33:28;0.00;1.00
20650;DHT22;10484;48.736;9.332;2022-12-16T07:36:12;0.00;1.00
20650;DHT22;10484;48.736;9.332;2022-12-16T07:38:56;0.00;1.00
20650;DHT22;10484;48.736;9.332;2022-12-16T07:41:40;0.00;1.00
20650;DHT22;10484;48.736;9.332;2022-12-16T07:44:24;0.00;1.00
20650;DHT22;10484;48.736;9.332;2022-12-16T07:47:08;0.00;1.00
20650;DHT22;10484;48.736;9.332;2022-12-16T07:49:52;0.00;1.00
20650;DHT22;10484;48.736;9.332;2022-12-16T07:52:36;0.00;1.00
20650;DHT22;10484;48.736;9.332;2022-12-16T07:55:20;0.00;1.00
20650;DHT22;10484;48.736;9.332;2022-12-16T07:58:04;0.00;1.00
20650;DHT22;10484;48.736;9.332;2022-12-16T08:00:48;0.00;1.00
20650;DHT22;10484;48.736;9.332;2022-12-16T08:03:32;0.00;1.00
20650;DHT22;10484;48.736;9.332;2022-12-16T08:06:16;0.00;1.00
20650;DHT22;10484;48.736;9.332;2022-12-16T08:09:01;0.00;1.00
20650;DHT22;10484;48.736;9.332;2022-12-16T08:11:45;0.00;1.00
20650;DHT22;10484;48.736;9.332;2022-12-16T08:14:29;0.00;1.00
20650;DHT22;10484;48.736;9.332;2022-12-16T08:17:13;0.10;1.00
20650;DHT22;10484;48.736;9.332;2022-12-16T08:19:57;0.10;1.00
20650;DHT22;10484;48.736;9.332;2022-12-16T08:22:41;0.10;1.00
20650;DHT22;10484;48.736;9.332;2022-12-16T08:25:25;0.10;1.00
20650;DHT22;10484;48.736;9.332;2022-12-16T08:28:09;0.00;1.00
20650;DHT22;10484;48.736;9.332;2022-12-16T08:30:53;0.00;1.00
20650;DHT22;10484;48.736;9.332;2022-12-16T08:33:37;0.10;1.00
20650;DHT22;10484;48.736;9.332;2022-12-16T08:36:22;0.10;1.00
20650;DHT22;10484;48.736;9.332;2022-12-16T08:39:06;0.10;1.00
20650;DHT22;10484;48.736;9.332;2022-12-16T08:41:50;0.10;1.00
20650;DHT22;10484;48.736;9.332;2022-12-16T08:44:34;0.10;1.00
20650;DHT22;10484;48.736;9.332;2022-12-16T08:47:18;0.10;1.00
20650;DHT22;10484;48.736;9.332;2022-12-16T08:50:03;0.20;1.00
20650;DHT22;10484;48.736;9.332;2022-12-16T08:52:48;0.20;1.00
20650;DHT22;10484;48.736;9.332;2022-12-16T08:55:32;0.20;1.00
20650;DHT22;10484;48.736;9.332;2022-12-16T08:58:16;0.20;1.00
20650;DHT22;10484;48.736;9.332;2022-12-16T09:01:00;0.20;1.00
20650;DHT22;10484;48.736;9.332;2022-12-16T09:03:44;0.20;1.00
20650;DHT22;10484;48.736;9.332;2022-12-16T09:06:28;0.20;1.00
20650;DHT22;10484;48.736;9.332;2022-12-16T09:09:12;0.20;1.00
20650;DHT22;10484;48.736;9.332;2022-12-16T09:11:56;0.20;1.00
20650;DHT22;10484;48.736;9.332;2022-12-16T09:14:41;0.20;1.00
20650;DHT22;10484;48.736;9.332;2022-12-16T09:17:25;0.20;1.00
20650;DHT22;10484;48.736;9.332;2022-12-16T09:20:09;0.20;1.00
20650;DHT22;10484;48.736;9.332;2022-12-16T09:22:53;0.20;1.00
20650;DHT22;10484;48.736;9.332;2022-12-16T09:25:38;0.20;1.00
20650;DHT22;10484;48.736;9.332;2022-12-16T09:28:22;0.20;1.00
20650;DHT22;10484;48.736;9.332;2022-12-16T09:31:06;0.20;1.00
20650;DHT22;10484;48.736;9.332;2022-12-16T09:33:50;0.20;1.00
20650;DHT22;10484;48.736;9.332;2022-12-16T09:36:34;0.20;1.00
20650;DHT22;10484;48.736;9.332;2022-12-16T09:39:18;0.20;1.00
20650;DHT22;10484;48.736;9.332;2022-12-16T09:42:18;0.20;1.00
20650;DHT22;10484;48.736;9.332;2022-12-16T09:45:18;0.20;1.00
20650;DHT22;10484;48.736;9.332;2022-12-16T09:48:07;0.20;1.00
20650;DHT22;10484;48.736;9.332;2022-12-16T09:50:55;0.20;1.00
20650;DHT22;10484;48.736;9.332;2022-12-16T09:53:42;0.20;1.00
20650;DHT22;10484;48.736;9.332;2022-12-16T09:56:30;0.20;1.00
20650;DHT22;10484;48.736;9.332;2022-12-16T09:59:20;0.20;1.00
20650;DHT22;10484;48.736;9.332;2022-12-16T10:02:13;0.20;1.00
20650;DHT22;10484;48.736;9.332;2022-12-16T10:04:59;0.20;1.00
20650;DHT22;10484;48.736;9.332;2022-12-16T10:11:03;0.20;1.00
20650;DHT22;10484;48.736;9.332;2022-12-16T10:13:58;0.20;1.00
20650;DHT22;10484;48.736;9.332;2022-12-16T10:22:42;0.20;1.00
20650;DHT22;10484;48.736;9.332;2022-12-16T10:25:38;0.20;1.00
20650;DHT22;10484;48.736;9.332;2022-12-16T10:31:24;0.20;1.00
20650;DHT22;10484;48.736;9.332;2022-12-16T10:34:15;0.20;1.00
20650;DHT22;10484;48.736;9.332;2022-12-16T11:21:27;0.20;1.00
20650;DHT22;10484;48.736;9.332;2022-12-16T11:24:18;0.20;1.00
20650;DHT22;10484;48.736;9.332;2022-12-16T11:32:59;0.20;1.00
20650;DHT22;10484;48.736;9.332;2022-12-16T11:35:52;0.20;1.00
20650;DHT22;10484;48.736;9.332;2022-12-16T11:38:45;0.20;1.00
20650;DHT22;10484;48.736;9.332;2022-12-16T11:41:43;0.20;1.00
20650;DHT22;10484;48.736;9.332;2022-12-16T11:44:45;0.20;1.00
20650;DHT22;10484;48.736;9.332;2022-12-16T11:48:02;0.20;1.00
20650;DHT22;10484;48.736;9.332;2022-12-16T11:50:54;0.20;1.00
20650;DHT22;10484;48.736;9.332;2022-12-16T11:54:29;0.20;1.00
20650;DHT22;10484;48.736;9.332;2022-12-16T11:56:48;0.20;1.00
20650;DHT22;10484;48.736;9.332;2022-12-16T12:02:55;0.20;1.00
20650;DHT22;10484;48.736;9.332;2022-12-16T12:06:02;0.20;1.00
20650;DHT22;10484;48.736;9.332;2022-12-16T12:08:59;0.30;1.00
20650;DHT22;10484;48.736;9.332;2022-12-16T12:18:40;0.30;1.00
20650;DHT22;10484;48.736;9.332;2022-12-16T12:21:42;0.40;1.00
20650;DHT22;10484;48.736;9.332;2022-12-16T12:30:26;0.40;1.00
20650;DHT22;10484;48.736;9.332;2022-12-16T12:33:50;0.40;1.00
20650;DHT22;10484;48.736;9.332;2022-12-16T12:36:53;0.40;1.00
20650;DHT22;10484;48.736;9.332;2022-12-16T12:39:48;0.40;1.00
20650;DHT22;10484;48.736;9.332;2022-12-16T12:42:46;0.40;1.00
20650;DHT22;10484;48.736;9.332;2022-12-16T12:45:53;0.40;1.00
20650;DHT22;10484;48.736;9.332;2022-12-16T12:48:48;0.50;1.00
20650;DHT22;10484;48.736;9.332;2022-12-16T12:57:48;0.40;1.00
20650;DHT22;10484;48.736;9.332;2022-12-16T13:00:42;0.40;1.00
20650;DHT22;10484;48.736;9.332;2022-12-16T13:03:48;0.40;1.00
20650;DHT22;10484;48.736;9.332;2022-12-16T13:06:37;0.40;1.00
20650;DHT22;10484;48.736;9.332;2022-12-16T13:09:35;0.40;1.00
20650;DHT22;10484;48.736;9.332;2022-12-16T13:12:27;0.40;1.00
20650;DHT22;10484;48.736;9.332;2022-12-16T13:23:35;0.40;1.00
20650;DHT22;10484;48.736;9.332;2022-12-16T13:26:24;0.40;1.00
20650;DHT22;10484;48.736;9.332;2022-12-16T13:29:22;0.40;1.00
20650;DHT22;10484;48.736;9.332;2022-12-16T13:35:16;0.40;1.00
20650;DHT22;10484;48.736;9.332;2022-12-16T13:41:01;0.40;1.00
20650;DHT22;10484;48.736;9.332;2022-12-16T13:43:58;0.40;1.00
20650;DHT22;10484;48.736;9.332;2022-12-16T13:46:51;0.40;1.00
20650;DHT22;10484;48.736;9.332;2022-12-16T14:01:20;0.40;1.00
20650;DHT22;10484;48.736;9.332;2022-12-16T14:04:08;0.40;1.00
20650;DHT22;10484;48.736;9.332;2022-12-16T14:06:57;0.50;1.00
20650;DHT22;10484;48.736;9.332;2022-12-16T14:09:43;0.50;1.00
20650;DHT22;10484;48.736;9.332;2022-12-16T14:12:47;0.40;1.00
20650;DHT22;10484;48.736;9.332;2022-12-16T14:18:44;0.40;1.00
20650;DHT22;10484;48.736;9.332;2022-12-16T14:21:50;0.40;1.00
20650;DHT22;10484;48.736;9.332;2022-12-16T14:24:37;0.40;1.00
20650;DHT22;10484;48.736;9.332;2022-12-16T14:27:21;0.40;1.00
20650;DHT22;10484;48.736;9.332;2022-12-16T14:30:21;0.40;1.00
20650;DHT22;10484;48.736;9.332;2022-12-16T14:33:23;0.40;1.00
20650;DHT22;10484;48.736;9.332;2022-12-16T14:39:02;0.40;1.00
20650;DHT22;10484;48.736;9.332;2022-12-16T14:41:50;0.40;1.00
20650;DHT22;10484;48.736;9.332;2022-12-16T14:44:34;0.40;1.00
20650;DHT22;10484;48.736;9.332;2022-12-16T14:47:21;0.40;1.00
20650;DHT22;10484;48.736;9.332;2022-12-16T14:50:26;0.40;1.00
20650;DHT22;10484;48.736;9.332;2022-12-16T14:53:30;0.40;1.00
20650;DHT22;10484;48.736;9.332;2022-12-16T14:56:38;0.40;1.00
20650;DHT22;10484;48.736;9.332;2022-12-16T14:59:22;0.30;1.00
20650;DHT22;10484;48.736;9.332;2022-12-16T15:02:18;0.30;1.00
20650;DHT22;10484;48.736;9.332;2022-12-16T15:05:08;0.30;1.00
20650;DHT22;10484;48.736;9.332;2022-12-16T15:07:53;0.30;1.00
20650;DHT22;10484;48.736;9.332;2022-12-16T15:10:37;0.30;1.00
20650;DHT22;10484;48.736;9.332;2022-12-16T15:13:22;0.30;1.00
20650;DHT22;10484;48.736;9.332;2022-12-16T15:16:15;0.30;1.00
20650;DHT22;10484;48.736;9.332;2022-12-16T15:19:01;0.30;1.00
20650;DHT22;10484;48.736;9.332;2022-12-16T15:21:46;0.30;1.00
20650;DHT22;10484;48.736;9.332;2022-12-16T15:24:34;0.30;1.00
20650;DHT22;10484;48.736;9.332;2022-12-16T15:27:34;0.30;1.00
20650;DHT22;10484;48.736;9.332;2022-12-16T15:30:44;0.30;1.00
20650;DHT22;10484;48.736;9.332;2022-12-16T15:33:38;0.30;1.00
20650;DHT22;10484;48.736;9.332;2022-12-16T15:36:48;0.30;1.00
20650;DHT22;10484;48.736;9.332;2022-12-16T15:39:36;0.30;1.00
20650;DHT22;10484;48.736;9.332;2022-12-16T15:42:29;0.20;1.00
20650;DHT22;10484;48.736;9.332;2022-12-16T15:45:26;0.20;1.00
20650;DHT22;10484;48.736;9.332;2022-12-16T15:48:26;0.30;1.00
20650;DHT22;10484;48.736;9.332;2022-12-16T15:51:22;0.20;1.00
20650;DHT22;10484;48.736;9.332;2022-12-16T15:54:15;0.20;1.00
20650;DHT22;10484;48.736;9.332;2022-12-16T15:56:59;0.20;1.00
20650;DHT22;10484;48.736;9.332;2022-12-16T16:00:02;0.20;1.00
20650;DHT22;10484;48.736;9.332;2022-12-16T16:02:48;0.30;1.00
20650;DHT22;10484;48.736;9.332;2022-12-16T16:05:32;0.30;1.00
20650;DHT22;10484;48.736;9.332;2022-12-16T16:08:19;0.30;1.00
20650;DHT22;10484;48.736;9.332;2022-12-16T16:11:03;0.30;1.00
20650;DHT22;10484;48.736;9.332;2022-12-16T16:13:47;0.30;1.00
20650;DHT22;10484;48.736;9.332;2022-12-16T16:16:31;0.30;1.00
20650;DHT22;10484;48.736;9.332;2022-12-16T16:19:21;0.20;1.00
20650;DHT22;10484;48.736;9.332;2022-12-16T16:22:15;0.30;1.00
20650;DHT22;10484;48.736;9.332;2022-12-16T16:24:59;0.20;1.00
20650;DHT22;10484;48.736;9.332;2022-12-16T16:27:43;0.20;1.00
20650;DHT22;10484;48.736;9.332;2022-12-16T16:30:28;0.20;1.00
20650;DHT22;10484;48.736;9.332;2022-12-16T16:33:12;0.20;1.00
20650;DHT22;10484;48.736;9.332;2022-12-16T16:35:57;0.20;1.00
20650;DHT22;10484;48.736;9.332;2022-12-16T16:38:41;0.20;1.00
20650;DHT22;10484;48.736;9.332;2022-12-16T16:41:25;0.20;1.00
20650;DHT22;10484;48.736;9.332;2022-12-16T16:44:10;0.20;1.00
20650;DHT22;10484;48.736;9.332;2022-12-16T16:46:55;0.20;1.00
20650;DHT22;10484;48.736;9.332;2022-12-16T16:49:42;0.10;1.00
20650;DHT22;10484;48.736;9.332;2022-12-16T16:52:28;0.10;1.00
20650;DHT22;10484;48.736;9.332;2022-12-16T16:55:15;0.10;1.00
20650;DHT22;10484;48.736;9.332;2022-12-16T16:58:00;0.10;1.00
20650;DHT22;10484;48.736;9.332;2022-12-16T17:00:47;0.10;1.00
20650;DHT22;10484;48.736;9.332;2022-12-16T17:03:31;0.10;1.00
20650;DHT22;10484;48.736;9.332;2022-12-16T17:06:16;0.20;1.00
20650;DHT22;10484;48.736;9.332;2022-12-16T17:09:00;0.20;1.00
20650;DHT22;10484;48.736;9.332;2022-12-16T17:11:44;0.20;1.00
20650;DHT22;10484;48.736;9.332;2022-12-16T17:14:28;0.20;1.00
20650;DHT22;10484;48.736;9.332;2022-12-16T17:17:13;0.20;1.00
20650;DHT22;10484;48.736;9.332;2022-12-16T17:19:57;0.10;1.00
20650;DHT22;10484;48.736;9.332;2022-12-16T17:22:41;0.10;1.00
20650;DHT22;10484;48.736;9.332;2022-12-16T17:25:25;0.10;1.00
20650;DHT22;10484;48.736;9.332;2022-12-16T17:28:10;0.10;1.00
20650;DHT22;10484;48.736;9.332;2022-12-16T17:30:54;0.10;1.00
20650;DHT22;10484;48.736;9.332;2022-12-16T17:33:38;0.10;1.00
20650;DHT22;10484;48.736;9.332;2022-12-16T17:36:22;0.10;1.00
20650;DHT22;10484;48.736;9.332;2022-12-16T17:39:08;0.10;1.00
20650;DHT22;10484;48.736;9.332;2022-12-16T17:41:53;0.10;1.00
20650;DHT22;10484;48.736;9.332;2022-12-16T17:44:37;0.10;1.00
20650;DHT22;10484;48.736;9.332;2022-12-16T17:47:22;0.10;1.00
20650;DHT22;10484;48.736;9.332;2022-12-16T17:50:06;0.00;1.00
20650;DHT22;10484;48.736;9.332;2022-12-16T17:52:55;0.00;1.00
20650;DHT22;10484;48.736;9.332;2022-12-16T17:55:39;0.00;1.00
20650;DHT22;10484;48.736;9.332;2022-12-16T17:58:35;0.10;1.00
20650;DHT22;10484;48.736;9.332;2022-12-16T18:01:20;0.00;1.00
20650;DHT22;10484;48.736;9.332;2022-12-16T18:04:05;0.00;1.00
20650;DHT22;10484;48.736;9.332;2022-12-16T18:06:49;0.00;1.00
20650;DHT22;10484;48.736;9.332;2022-12-16T18:09:33;0.00;1.00
20650;DHT22;10484;48.736;9.332;2022-12-16T18:12:18;0.00;1.00
20650;DHT22;10484;48.736;9.332;2022-12-16T18:15:03;0.00;1.00
20650;DHT22;10484;48.736;9.332;2022-12-16T18:17:48;0.00;1.00
20650;DHT22;10484;48.736;9.332;2022-12-16T18:20:33;-0.10;1.00
20650;DHT22;10484;48.736;9.332;2022-12-16T18:23:18;-0.10;1.00
20650;DHT22;10484;48.736;9.332;2022-12-16T18:26:05;-0.10;1.00
20650;DHT22;10484;48.736;9.332;2022-12-16T18:28:49;-0.10;1.00
20650;DHT22;10484;48.736;9.332;2022-12-16T18:31:33;-0.10;1.00
20650;DHT22;10484;48.736;9.332;2022-12-16T18:34:18;-0.10;1.00
20650;DHT22;10484;48.736;9.332;2022-12-16T18:37:02;-0.10;1.00
20650;DHT22;10484;48.736;9.332;2022-12-16T18:39:46;-0.10;1.00
20650;DHT22;10484;48.736;9.332;2022-12-16T18:42:30;-0.10;1.00
20650;DHT22;10484;48.736;9.332;2022-12-16T18:45:15;-0.10;1.00
20650;DHT22;10484;48.736;9.332;2022-12-16T18:47:59;-0.10;1.00
20650;DHT22;10484;48.736;9.332;2022-12-16T18:50:43;-0.10;1.00
20650;DHT22;10484;48.736;9.332;2022-12-16T18:53:26;-0.10;1.00
20650;DHT22;10484;48.736;9.332;2022-12-16T18:56:11;-0.10;1.00
20650;DHT22;10484;48.736;9.332;2022-12-16T18:58:55;-0.10;1.00
20650;DHT22;10484;48.736;9.332;2022-12-16T19:01:39;-0.10;1.00
20650;DHT22;10484;48.736;9.332;2022-12-16T19:04:24;-0.10;1.00
20650;DHT22;10484;48.736;9.332;2022-12-16T19:07:08;-0.10;1.00
20650;DHT22;10484;48.736;9.332;2022-12-16T19:09:52;-0.10;1.00
20650;DHT22;10484;48.736;9.332;2022-12-16T19:12:37;-0.10;1.00
20650;DHT22;10484;48.736;9.332;2022-12-16T19:15:21;-0.10;1.00
20650;DHT22;10484;48.736;9.332;2022-12-16T19:18:05;-0.10;1.00
20650;DHT22;10484;48.736;9.332;2022-12-16T19:20:53;-0.10;1.00
20650;DHT22;10484;48.736;9.332;2022-12-16T19:23:37;-0.10;1.00
20650;DHT22;10484;48.736;9.332;2022-12-16T19:26:21;-0.10;1.00
20650;DHT22;10484;48.736;9.332;2022-12-16T19:29:13;-0.10;1.00
20650;DHT22;10484;48.736;9.332;2022-12-16T19:31:57;-0.10;1.00
20650;DHT22;10484;48.736;9.332;2022-12-16T19:34:41;-0.10;1.00
20650;DHT22;10484;48.736;9.332;2022-12-16T19:37:25;-0.10;1.00
20650;DHT22;10484;48.736;9.332;2022-12-16T19:40:09;-0.10;1.00
20650;DHT22;10484;48.736;9.332;2022-12-16T19:42:53;-0.10;1.00
20650;DHT22;10484;48.736;9.332;2022-12-16T19:45:37;-0.20;1.00
20650;DHT22;10484;48.736;9.332;2022-12-16T19:48:21;-0.20;1.00
20650;DHT22;10484;48.736;9.332;2022-12-16T19:51:05;-0.20;1.00
20650;DHT22;10484;48.736;9.332;2022-12-16T19:53:50;-0.20;1.00
20650;DHT22;10484;48.736;9.332;2022-12-16T19:56:34;-0.20;1.00
20650;DHT22;10484;48.736;9.332;2022-12-16T19:59:19;-0.30;1.00
20650;DHT22;10484;48.736;9.332;2022-12-16T20:02:04;-0.30;1.00